sensor_id;sensor_type;location;lat;lon;timestamp;pressure;altitude;pressure_sealevel;temperature
9985;BMP180;16737;50.932;6.780;2023-02-11T00:01:23;102098.00;;;11.70
9985;BMP180;16737;50.932;6.780;2023-02-11T00:03:50;102089.00;;;11.70
9985;BMP180;16737;50.932;6.780;2023-02-11T00:06:18;102091.00;;;11.70
9985;BMP180;16737;50.932;6.780;2023-02-11T00:08:46;102073.00;;;11.70
9985;BMP180;16737;50.932;6.780;2023-02-11T00:11:16;102078.00;;;11.70
9985;BMP180;16737;50.932;6.780;2023-02-11T00:13:45;102080.00;;;11.70
9985;BMP180;16737;50.932;6.780;2023-02-11T00:16:15;102084.00;;;11.70
9985;BMP180;16737;50.932;6.780;2023-02-11T00:18:42;102081.00;;;11.70
9985;BMP180;16737;50.932;6.780;2023-02-11T00:21:12;102059.00;;;11.60
9985;BMP180;16737;50.932;6.780;2023-02-11T00:23:40;102074.00;;;11.60
9985;BMP180;16737;50.932;6.780;2023-02-11T00:26:12;102059.00;;;11.60
9985;BMP180;16737;50.932;6.780;2023-02-11T00:28:40;102047.00;;;11.60
9985;BMP180;16737;50.932;6.780;2023-02-11T00:31:07;102072.00;;;11.60
9985;BMP180;16737;50.932;6.780;2023-02-11T00:33:34;102073.00;;;11.60
9985;BMP180;16737;50.932;6.780;2023-02-11T00:36:04;102075.00;;;11.60
9985;BMP180;16737;50.932;6.780;2023-02-11T00:38:31;102067.00;;;11.60
9985;BMP180;16737;50.932;6.780;2023-02-11T00:41:01;102069.00;;;11.50
9985;BMP180;16737;50.932;6.780;2023-02-11T00:43:29;102062.00;;;11.50
9985;BMP180;16737;50.932;6.780;2023-02-11T00:45:56;102069.00;;;11.50
9985;BMP180;16737;50.932;6.780;2023-02-11T00:48:23;102060.00;;;11.50
9985;BMP180;16737;50.932;6.780;2023-02-11T00:50:50;102051.00;;;11.40
9985;BMP180;16737;50.932;6.780;2023-02-11T00:53:17;102057.00;;;11.40
9985;BMP180;16737;50.932;6.780;2023-02-11T00:55:43;102061.00;;;11.40
9985;BMP180;16737;50.932;6.780;2023-02-11T00:58:10;102048.00;;;11.40
9985;BMP180;16737;50.932;6.780;2023-02-11T01:00:39;102052.00;;;11.40
9985;BMP180;16737;50.932;6.780;2023-02-11T01:03:06;102056.00;;;11.30
9985;BMP180;16737;50.932;6.780;2023-02-11T01:05:33;102060.00;;;11.30
9985;BMP180;16737;50.932;6.780;2023-02-11T01:08:00;102057.00;;;11.30
9985;BMP180;16737;50.932;6.780;2023-02-11T01:10:27;102055.00;;;11.30
9985;BMP180;16737;50.932;6.780;2023-02-11T01:12:54;102057.00;;;11.30
9985;BMP180;16737;50.932;6.780;2023-02-11T01:15:23;102050.00;;;11.20
9985;BMP180;16737;50.932;6.780;2023-02-11T01:17:51;102059.00;;;11.20
9985;BMP180;16737;50.932;6.780;2023-02-11T01:20:21;102057.00;;;11.10
9985;BMP180;16737;50.932;6.780;2023-02-11T01:22:48;102070.00;;;11.10
9985;BMP180;16737;50.932;6.780;2023-02-11T01:25:16;102071.00;;;11.10
9985;BMP180;16737;50.932;6.780;2023-02-11T01:27:42;102068.00;;;11.00
9985;BMP180;16737;50.932;6.780;2023-02-11T01:30:13;102062.00;;;11.00
9985;BMP180;16737;50.932;6.780;2023-02-11T01:32:40;102064.00;;;11.00
9985;BMP180;16737;50.932;6.780;2023-02-11T01:35:08;102056.00;;;11.00
9985;BMP180;16737;50.932;6.780;2023-02-11T01:37:36;102052.00;;;10.90
9985;BMP180;16737;50.932;6.780;2023-02-11T01:40:06;102058.00;;;10.90
9985;BMP180;16737;50.932;6.780;2023-02-11T01:42:33;102069.00;;;10.80
9985;BMP180;16737;50.932;6.780;2023-02-11T01:48:27;102065.00;;;10.80
9985;BMP180;16737;50.932;6.780;2023-02-11T01:51:02;102068.00;;;10.80
9985;BMP180;16737;50.932;6.780;2023-02-11T01:53:32;102080.00;;;10.80
9985;BMP180;16737;50.932;6.780;2023-02-11T01:56:19;102084.00;;;10.80
9985;BMP180;16737;50.932;6.780;2023-02-11T01:59:12;102099.00;;;10.60
9985;BMP180;16737;50.932;6.780;2023-02-11T02:01:45;102089.00;;;10.80
9985;BMP180;16737;50.932;6.780;2023-02-11T02:04:17;102063.00;;;10.80
9985;BMP180;16737;50.932;6.780;2023-02-11T02:06:51;102080.00;;;10.80
9985;BMP180;16737;50.932;6.780;2023-02-11T02:09:24;102075.00;;;10.80
9985;BMP180;16737;50.932;6.780;2023-02-11T02:11:53;102075.00;;;10.80
9985;BMP180;16737;50.932;6.780;2023-02-11T02:14:20;102057.00;;;10.80
9985;BMP180;16737;50.932;6.780;2023-02-11T02:16:47;102073.00;;;10.80
9985;BMP180;16737;50.932;6.780;2023-02-11T02:23:00;102057.00;;;10.80
9985;BMP180;16737;50.932;6.780;2023-02-11T02:26:12;102044.00;;;10.80
9985;BMP180;16737;50.932;6.780;2023-02-11T02:29:21;102061.00;;;10.80
9985;BMP180;16737;50.932;6.780;2023-02-11T02:32:29;102047.00;;;10.70
9985;BMP180;16737;50.932;6.780;2023-02-11T02:35:11;102043.00;;;10.70
9985;BMP180;16737;50.932;6.780;2023-02-11T02:37:50;102042.00;;;10.70
9985;BMP180;16737;50.932;6.780;2023-02-11T02:40:23;102037.00;;;10.70
9985;BMP180;16737;50.932;6.780;2023-02-11T02:42:52;102002.00;;;10.70
9985;BMP180;16737;50.932;6.780;2023-02-11T02:45:21;102018.00;;;10.70
9985;BMP180;16737;50.932;6.780;2023-02-11T02:47:49;102042.00;;;10.70
9985;BMP180;16737;50.932;6.780;2023-02-11T02:50:22;102042.00;;;10.70
9985;BMP180;16737;50.932;6.780;2023-02-11T02:53:11;102039.00;;;10.60
9985;BMP180;16737;50.932;6.780;2023-02-11T02:55:54;102031.00;;;10.60
9985;BMP180;16737;50.932;6.780;2023-02-11T02:58:56;102030.00;;;10.60
9985;BMP180;16737;50.932;6.780;2023-02-11T03:01:38;101999.00;;;10.50
9985;BMP180;16737;50.932;6.780;2023-02-11T03:04:17;102011.00;;;10.50
9985;BMP180;16737;50.932;6.780;2023-02-11T03:06:52;102017.00;;;10.50
9985;BMP180;16737;50.932;6.780;2023-02-11T03:09:28;102007.00;;;10.50
9985;BMP180;16737;50.932;6.780;2023-02-11T03:11:57;102008.00;;;10.40
9985;BMP180;16737;50.932;6.780;2023-02-11T03:14:27;102009.00;;;10.40
9985;BMP180;16737;50.932;6.780;2023-02-11T03:16:59;101998.00;;;10.40
9985;BMP180;16737;50.932;6.780;2023-02-11T03:19:33;102011.00;;;10.40
9985;BMP180;16737;50.932;6.780;2023-02-11T03:22:10;101998.00;;;10.40
9985;BMP180;16737;50.932;6.780;2023-02-11T03:24:40;101983.00;;;10.30
9985;BMP180;16737;50.932;6.780;2023-02-11T03:27:15;101985.00;;;10.30
9985;BMP180;16737;50.932;6.780;2023-02-11T03:29:51;101975.00;;;10.30
9985;BMP180;16737;50.932;6.780;2023-02-11T03:32:26;101985.00;;;10.30
9985;BMP180;16737;50.932;6.780;2023-02-11T03:34:59;101983.00;;;10.30
9985;BMP180;16737;50.932;6.780;2023-02-11T03:37:34;102001.00;;;10.20
9985;BMP180;16737;50.932;6.780;2023-02-11T03:40:09;102004.00;;;10.20
9985;BMP180;16737;50.932;6.780;2023-02-11T03:42:42;101966.00;;;10.20
9985;BMP180;16737;50.932;6.780;2023-02-11T03:45:14;101986.00;;;10.20
9985;BMP180;16737;50.932;6.780;2023-02-11T03:47:47;101985.00;;;10.20
9985;BMP180;16737;50.932;6.780;2023-02-11T03:50:19;101990.00;;;10.20
9985;BMP180;16737;50.932;6.780;2023-02-11T03:52:49;101982.00;;;10.20
9985;BMP180;16737;50.932;6.780;2023-02-11T03:55:19;101974.00;;;10.20
9985;BMP180;16737;50.932;6.780;2023-02-11T03:57:50;101973.00;;;9.80
9985;BMP180;16737;50.932;6.780;2023-02-11T04:00:18;101993.00;;;10.20
9985;BMP180;16737;50.932;6.780;2023-02-11T04:02:45;101991.00;;;10.20
9985;BMP180;16737;50.932;6.780;2023-02-11T04:05:15;101993.00;;;10.10
9985;BMP180;16737;50.932;6.780;2023-02-11T04:07:42;101995.00;;;10.20
9985;BMP180;16737;50.932;6.780;2023-02-11T04:10:11;101998.00;;;10.20
9985;BMP180;16737;50.932;6.780;2023-02-11T04:12:38;101986.00;;;10.20
9985;BMP180;16737;50.932;6.780;2023-02-11T04:15:06;101989.00;;;10.20
9985;BMP180;16737;50.932;6.780;2023-02-11T04:17:33;101988.00;;;10.10
9985;BMP180;16737;50.932;6.780;2023-02-11T04:20:00;101984.00;;;10.20
9985;BMP180;16737;50.932;6.780;2023-02-11T04:22:29;101994.00;;;10.20
9985;BMP180;16737;50.932;6.780;2023-02-11T04:24:56;101985.00;;;10.20
9985;BMP180;16737;50.932;6.780;2023-02-11T04:27:23;101990.00;;;10.20
9985;BMP180;16737;50.932;6.780;2023-02-11T04:29:50;101958.00;;;10.30
9985;BMP180;16737;50.932;6.780;2023-02-11T04:32:17;101974.00;;;10.30
9985;BMP180;16737;50.932;6.780;2023-02-11T04:34:44;101972.00;;;10.30
9985;BMP180;16737;50.932;6.780;2023-02-11T04:37:10;101973.00;;;10.30
9985;BMP180;16737;50.932;6.780;2023-02-11T04:39:39;101973.00;;;10.30
9985;BMP180;16737;50.932;6.780;2023-02-11T04:42:06;101966.00;;;10.40
9985;BMP180;16737;50.932;6.780;2023-02-11T04:44:33;101957.00;;;10.40
9985;BMP180;16737;50.932;6.780;2023-02-11T04:47:00;101953.00;;;10.40
9985;BMP180;16737;50.932;6.780;2023-02-11T04:49:27;101959.00;;;10.40
9985;BMP180;16737;50.932;6.780;2023-02-11T04:51:54;101965.00;;;10.40
9985;BMP180;16737;50.932;6.780;2023-02-11T04:54:21;101972.00;;;10.50
9985;BMP180;16737;50.932;6.780;2023-02-11T04:56:49;101962.00;;;10.50
9985;BMP180;16737;50.932;6.780;2023-02-11T04:59:16;101955.00;;;10.50
9985;BMP180;16737;50.932;6.780;2023-02-11T05:01:43;101968.00;;;10.50
9985;BMP180;16737;50.932;6.780;2023-02-11T05:04:10;101962.00;;;10.50
9985;BMP180;16737;50.932;6.780;2023-02-11T05:06:37;101973.00;;;10.50
9985;BMP180;16737;50.932;6.780;2023-02-11T05:09:05;101979.00;;;10.50
9985;BMP180;16737;50.932;6.780;2023-02-11T05:11:32;101982.00;;;10.50
9985;BMP180;16737;50.932;6.780;2023-02-11T05:14:00;101966.00;;;10.50
9985;BMP180;16737;50.932;6.780;2023-02-11T05:16:27;101970.00;;;10.50
9985;BMP180;16737;50.932;6.780;2023-02-11T05:18:54;101968.00;;;10.50
9985;BMP180;16737;50.932;6.780;2023-02-11T05:21:21;101965.00;;;10.50
9985;BMP180;16737;50.932;6.780;2023-02-11T05:23:48;101966.00;;;10.50
9985;BMP180;16737;50.932;6.780;2023-02-11T05:26:16;101969.00;;;10.40
9985;BMP180;16737;50.932;6.780;2023-02-11T05:28:44;101960.00;;;10.40
9985;BMP180;16737;50.932;6.780;2023-02-11T05:31:12;101975.00;;;10.40
9985;BMP180;16737;50.932;6.780;2023-02-11T05:33:40;101968.00;;;10.50
9985;BMP180;16737;50.932;6.780;2023-02-11T05:36:10;101963.00;;;10.40
9985;BMP180;16737;50.932;6.780;2023-02-11T05:38:38;101967.00;;;10.40
9985;BMP180;16737;50.932;6.780;2023-02-11T05:41:07;101930.00;;;10.40
9985;BMP180;16737;50.932;6.780;2023-02-11T05:43:34;101948.00;;;10.40
9985;BMP180;16737;50.932;6.780;2023-02-11T05:46:02;101947.00;;;10.40
9985;BMP180;16737;50.932;6.780;2023-02-11T05:48:32;101967.00;;;10.40
9985;BMP180;16737;50.932;6.780;2023-02-11T05:50:59;101943.00;;;10.40
9985;BMP180;16737;50.932;6.780;2023-02-11T05:53:25;101952.00;;;10.30
9985;BMP180;16737;50.932;6.780;2023-02-11T05:55:52;101947.00;;;10.40
9985;BMP180;16737;50.932;6.780;2023-02-11T05:58:19;101962.00;;;10.40
9985;BMP180;16737;50.932;6.780;2023-02-11T06:00:46;101964.00;;;10.40
9985;BMP180;16737;50.932;6.780;2023-02-11T06:03:13;101942.00;;;10.40
9985;BMP180;16737;50.932;6.780;2023-02-11T06:05:43;101961.00;;;10.40
9985;BMP180;16737;50.932;6.780;2023-02-11T06:08:10;101962.00;;;10.40
9985;BMP180;16737;50.932;6.780;2023-02-11T06:10:38;101953.00;;;10.40
9985;BMP180;16737;50.932;6.780;2023-02-11T06:13:07;101947.00;;;10.40
9985;BMP180;16737;50.932;6.780;2023-02-11T06:15:34;101949.00;;;10.40
9985;BMP180;16737;50.932;6.780;2023-02-11T06:18:01;101936.00;;;10.40
9985;BMP180;16737;50.932;6.780;2023-02-11T06:20:28;101951.00;;;10.40
9985;BMP180;16737;50.932;6.780;2023-02-11T06:22:56;101951.00;;;10.40
9985;BMP180;16737;50.932;6.780;2023-02-11T06:25:23;101951.00;;;10.50
9985;BMP180;16737;50.932;6.780;2023-02-11T06:27:50;101938.00;;;10.50
9985;BMP180;16737;50.932;6.780;2023-02-11T06:30:19;101950.00;;;10.50
9985;BMP180;16737;50.932;6.780;2023-02-11T06:32:46;101955.00;;;10.50
9985;BMP180;16737;50.932;6.780;2023-02-11T06:35:14;101960.00;;;10.50
9985;BMP180;16737;50.932;6.780;2023-02-11T06:37:41;101961.00;;;10.50
9985;BMP180;16737;50.932;6.780;2023-02-11T06:40:10;101960.00;;;10.50
9985;BMP180;16737;50.932;6.780;2023-02-11T06:42:37;101948.00;;;10.50
9985;BMP180;16737;50.932;6.780;2023-02-11T06:45:05;101955.00;;;10.60
9985;BMP180;16737;50.932;6.780;2023-02-11T06:47:33;101975.00;;;10.60
9985;BMP180;16737;50.932;6.780;2023-02-11T06:50:00;101967.00;;;10.50
9985;BMP180;16737;50.932;6.780;2023-02-11T06:52:27;101959.00;;;10.60
9985;BMP180;16737;50.932;6.780;2023-02-11T06:54:54;101973.00;;;10.50
9985;BMP180;16737;50.932;6.780;2023-02-11T06:57:22;101957.00;;;10.50
9985;BMP180;16737;50.932;6.780;2023-02-11T06:59:51;101979.00;;;10.50
9985;BMP180;16737;50.932;6.780;2023-02-11T07:02:18;101977.00;;;10.50
9985;BMP180;16737;50.932;6.780;2023-02-11T07:04:45;101990.00;;;10.50
9985;BMP180;16737;50.932;6.780;2023-02-11T07:07:12;101986.00;;;10.40
9985;BMP180;16737;50.932;6.780;2023-02-11T07:09:39;101995.00;;;10.50
9985;BMP180;16737;50.932;6.780;2023-02-11T07:12:09;101991.00;;;10.50
9985;BMP180;16737;50.932;6.780;2023-02-11T07:14:40;101987.00;;;10.50
9985;BMP180;16737;50.932;6.780;2023-02-11T07:17:08;101984.00;;;10.60
9985;BMP180;16737;50.932;6.780;2023-02-11T07:19:34;101985.00;;;10.50
9985;BMP180;16737;50.932;6.780;2023-02-11T07:22:01;101990.00;;;10.60
9985;BMP180;16737;50.932;6.780;2023-02-11T07:24:28;101990.00;;;10.60
9985;BMP180;16737;50.932;6.780;2023-02-11T07:26:55;101996.00;;;10.60
9985;BMP180;16737;50.932;6.780;2023-02-11T07:29:22;102007.00;;;10.60
9985;BMP180;16737;50.932;6.780;2023-02-11T07:31:50;102009.00;;;10.60
9985;BMP180;16737;50.932;6.780;2023-02-11T07:34:17;102017.00;;;10.60
9985;BMP180;16737;50.932;6.780;2023-02-11T07:36:44;102012.00;;;10.60
9985;BMP180;16737;50.932;6.780;2023-02-11T07:39:13;102011.00;;;10.60
9985;BMP180;16737;50.932;6.780;2023-02-11T07:41:40;102023.00;;;10.60
9985;BMP180;16737;50.932;6.780;2023-02-11T07:44:09;102020.00;;;10.60
9985;BMP180;16737;50.932;6.780;2023-02-11T07:46:36;102027.00;;;10.60
9985;BMP180;16737;50.932;6.780;2023-02-11T07:49:08;102019.00;;;10.60
9985;BMP180;16737;50.932;6.780;2023-02-11T07:51:36;102012.00;;;10.70
9985;BMP180;16737;50.932;6.780;2023-02-11T07:54:03;102012.00;;;10.70
9985;BMP180;16737;50.932;6.780;2023-02-11T07:56:31;102011.00;;;10.70
9985;BMP180;16737;50.932;6.780;2023-02-11T07:59:00;102007.00;;;10.70
9985;BMP180;16737;50.932;6.780;2023-02-11T08:01:28;102005.00;;;10.60
9985;BMP180;16737;50.932;6.780;2023-02-11T08:03:58;102016.00;;;10.60
9985;BMP180;16737;50.932;6.780;2023-02-11T08:06:30;102029.00;;;10.60
9985;BMP180;16737;50.932;6.780;2023-02-11T08:08:57;102028.00;;;10.60
9985;BMP180;16737;50.932;6.780;2023-02-11T08:11:28;102034.00;;;10.60
9985;BMP180;16737;50.932;6.780;2023-02-11T08:13:56;102024.00;;;10.60
9985;BMP180;16737;50.932;6.780;2023-02-11T08:16:26;102021.00;;;10.50
9985;BMP180;16737;50.932;6.780;2023-02-11T08:18:57;102017.00;;;10.60
9985;BMP180;16737;50.932;6.780;2023-02-11T08:21:27;102026.00;;;10.60
9985;BMP180;16737;50.932;6.780;2023-02-11T08:23:54;102023.00;;;10.60
9985;BMP180;16737;50.932;6.780;2023-02-11T08:26:24;102027.00;;;10.60
9985;BMP180;16737;50.932;6.780;2023-02-11T08:28:53;102023.00;;;10.60
9985;BMP180;16737;50.932;6.780;2023-02-11T08:31:23;102027.00;;;10.60
9985;BMP180;16737;50.932;6.780;2023-02-11T08:33:52;102020.00;;;10.60
9985;BMP180;16737;50.932;6.780;2023-02-11T08:36:22;102030.00;;;10.70
9985;BMP180;16737;50.932;6.780;2023-02-11T08:38:52;102027.00;;;10.70
9985;BMP180;16737;50.932;6.780;2023-02-11T08:41:19;102025.00;;;10.70
9985;BMP180;16737;50.932;6.780;2023-02-11T08:43:46;102013.00;;;10.80
9985;BMP180;16737;50.932;6.780;2023-02-11T08:46:16;102033.00;;;10.70
9985;BMP180;16737;50.932;6.780;2023-02-11T08:48:44;102033.00;;;10.70
9985;BMP180;16737;50.932;6.780;2023-02-11T08:51:16;102034.00;;;10.80
9985;BMP180;16737;50.932;6.780;2023-02-11T08:53:44;102031.00;;;10.80
9985;BMP180;16737;50.932;6.780;2023-02-11T08:56:14;102049.00;;;10.70
9985;BMP180;16737;50.932;6.780;2023-02-11T08:58:42;102048.00;;;10.70
9985;BMP180;16737;50.932;6.780;2023-02-11T09:01:10;102045.00;;;10.70
9985;BMP180;16737;50.932;6.780;2023-02-11T09:03:37;102055.00;;;10.70
9985;BMP180;16737;50.932;6.780;2023-02-11T09:06:06;102064.00;;;10.70
9985;BMP180;16737;50.932;6.780;2023-02-11T09:08:34;102073.00;;;10.70
9985;BMP180;16737;50.932;6.780;2023-02-11T09:11:02;102073.00;;;10.80
9985;BMP180;16737;50.932;6.780;2023-02-11T09:13:32;102079.00;;;10.80
9985;BMP180;16737;50.932;6.780;2023-02-11T09:16:01;102069.00;;;10.70
9985;BMP180;16737;50.932;6.780;2023-02-11T09:18:28;102080.00;;;10.80
9985;BMP180;16737;50.932;6.780;2023-02-11T09:21:01;102077.00;;;10.80
9985;BMP180;16737;50.932;6.780;2023-02-11T09:23:29;102086.00;;;10.80
9985;BMP180;16737;50.932;6.780;2023-02-11T09:25:59;102081.00;;;10.80
9985;BMP180;16737;50.932;6.780;2023-02-11T09:28:26;102082.00;;;10.80
9985;BMP180;16737;50.932;6.780;2023-02-11T09:30:54;102075.00;;;10.80
9985;BMP180;16737;50.932;6.780;2023-02-11T09:33:21;102076.00;;;10.80
9985;BMP180;16737;50.932;6.780;2023-02-11T09:35:48;102082.00;;;10.80
9985;BMP180;16737;50.932;6.780;2023-02-11T09:38:15;102078.00;;;10.80
9985;BMP180;16737;50.932;6.780;2023-02-11T09:40:43;102073.00;;;10.80
9985;BMP180;16737;50.932;6.780;2023-02-11T09:43:16;102080.00;;;10.80
9985;BMP180;16737;50.932;6.780;2023-02-11T09:45:46;102081.00;;;10.80
9985;BMP180;16737;50.932;6.780;2023-02-11T09:48:18;102084.00;;;10.80
9985;BMP180;16737;50.932;6.780;2023-02-11T09:50:50;102083.00;;;10.80
9985;BMP180;16737;50.932;6.780;2023-02-11T09:53:23;102087.00;;;10.80
9985;BMP180;16737;50.932;6.780;2023-02-11T09:55:53;102089.00;;;10.80
9985;BMP180;16737;50.932;6.780;2023-02-11T09:58:26;102079.00;;;10.80
9985;BMP180;16737;50.932;6.780;2023-02-11T10:01:05;102087.00;;;10.80
9985;BMP180;16737;50.932;6.780;2023-02-11T10:03:56;102098.00;;;10.80
9985;BMP180;16737;50.932;6.780;2023-02-11T10:06:39;102098.00;;;10.80
9985;BMP180;16737;50.932;6.780;2023-02-11T10:09:39;102098.00;;;10.80
9985;BMP180;16737;50.932;6.780;2023-02-11T10:12:25;102095.00;;;10.90
9985;BMP180;16737;50.932;6.780;2023-02-11T10:15:13;102115.00;;;10.90
9985;BMP180;16737;50.932;6.780;2023-02-11T10:17:58;102107.00;;;10.90
9985;BMP180;16737;50.932;6.780;2023-02-11T10:20:36;102118.00;;;10.90
9985;BMP180;16737;50.932;6.780;2023-02-11T10:23:14;102122.00;;;10.90
9985;BMP180;16737;50.932;6.780;2023-02-11T10:25:45;102112.00;;;11.00
9985;BMP180;16737;50.932;6.780;2023-02-11T10:28:16;102105.00;;;11.00
9985;BMP180;16737;50.932;6.780;2023-02-11T10:30:52;102135.00;;;11.00
9985;BMP180;16737;50.932;6.780;2023-02-11T10:33:27;102125.00;;;11.10
9985;BMP180;16737;50.932;6.780;2023-02-11T10:35:57;102122.00;;;11.10
9985;BMP180;16737;50.932;6.780;2023-02-11T10:38:25;102126.00;;;11.10
9985;BMP180;16737;50.932;6.780;2023-02-11T10:40:53;102110.00;;;11.20
9985;BMP180;16737;50.932;6.780;2023-02-11T10:43:25;102122.00;;;11.10
9985;BMP180;16737;50.932;6.780;2023-02-11T10:45:55;102119.00;;;11.20
9985;BMP180;16737;50.932;6.780;2023-02-11T10:48:44;102112.00;;;11.10
9985;BMP180;16737;50.932;6.780;2023-02-11T10:51:21;102133.00;;;11.10
9985;BMP180;16737;50.932;6.780;2023-02-11T10:53:57;102113.00;;;11.20
9985;BMP180;16737;50.932;6.780;2023-02-11T10:56:43;102121.00;;;11.20
9985;BMP180;16737;50.932;6.780;2023-02-11T10:59:20;102116.00;;;11.20
9985;BMP180;16737;50.932;6.780;2023-02-11T11:01:55;102122.00;;;11.20
9985;BMP180;16737;50.932;6.780;2023-02-11T11:04:37;102126.00;;;11.20
9985;BMP180;16737;50.932;6.780;2023-02-11T11:07:17;102111.00;;;11.20
9985;BMP180;16737;50.932;6.780;2023-02-11T11:09:52;102129.00;;;11.30
9985;BMP180;16737;50.932;6.780;2023-02-11T11:12:34;102130.00;;;11.30
9985;BMP180;16737;50.932;6.780;2023-02-11T11:15:16;102142.00;;;11.30
9985;BMP180;16737;50.932;6.780;2023-02-11T11:17:44;102138.00;;;11.30
9985;BMP180;16737;50.932;6.780;2023-02-11T11:20:22;102105.00;;;11.30
9985;BMP180;16737;50.932;6.780;2023-02-11T11:23:05;102135.00;;;11.40
9985;BMP180;16737;50.932;6.780;2023-02-11T11:25:43;102109.00;;;11.40
9985;BMP180;16737;50.932;6.780;2023-02-11T11:28:26;102133.00;;;11.40
9985;BMP180;16737;50.932;6.780;2023-02-11T11:30:56;102131.00;;;11.30
9985;BMP180;16737;50.932;6.780;2023-02-11T11:33:29;102127.00;;;11.40
9985;BMP180;16737;50.932;6.780;2023-02-11T11:36:02;102126.00;;;11.40
9985;BMP180;16737;50.932;6.780;2023-02-11T11:38:32;102121.00;;;11.40
9985;BMP180;16737;50.932;6.780;2023-02-11T11:41:23;102130.00;;;11.40
9985;BMP180;16737;50.932;6.780;2023-02-11T11:44:01;102117.00;;;11.50
9985;BMP180;16737;50.932;6.780;2023-02-11T11:46:33;102125.00;;;11.50
9985;BMP180;16737;50.932;6.780;2023-02-11T11:49:16;102117.00;;;11.50
9985;BMP180;16737;50.932;6.780;2023-02-11T11:51:55;102126.00;;;11.50
9985;BMP180;16737;50.932;6.780;2023-02-11T11:54:27;102116.00;;;11.50
9985;BMP180;16737;50.932;6.780;2023-02-11T11:57:00;102114.00;;;11.40
9985;BMP180;16737;50.932;6.780;2023-02-11T11:59:28;102096.00;;;11.50
9985;BMP180;16737;50.932;6.780;2023-02-11T12:02:45;102127.00;;;11.50
9985;BMP180;16737;50.932;6.780;2023-02-11T12:05:24;102119.00;;;11.50
9985;BMP180;16737;50.932;6.780;2023-02-11T12:08:05;102115.00;;;11.50
9985;BMP180;16737;50.932;6.780;2023-02-11T12:10:51;102110.00;;;11.50
9985;BMP180;16737;50.932;6.780;2023-02-11T12:13:35;102117.00;;;11.50
9985;BMP180;16737;50.932;6.780;2023-02-11T12:16:17;102118.00;;;11.50
9985;BMP180;16737;50.932;6.780;2023-02-11T12:19:20;102125.00;;;11.50
9985;BMP180;16737;50.932;6.780;2023-02-11T12:22:02;102105.00;;;11.50
9985;BMP180;16737;50.932;6.780;2023-02-11T12:24:53;102122.00;;;11.50
9985;BMP180;16737;50.932;6.780;2023-02-11T12:27:41;102118.00;;;11.50
9985;BMP180;16737;50.932;6.780;2023-02-11T12:30:30;102121.00;;;11.60
9985;BMP180;16737;50.932;6.780;2023-02-11T12:33:06;102145.00;;;11.60
9985;BMP180;16737;50.932;6.780;2023-02-11T12:35:47;102138.00;;;11.70
9985;BMP180;16737;50.932;6.780;2023-02-11T12:38:51;102133.00;;;11.70
9985;BMP180;16737;50.932;6.780;2023-02-11T12:41:39;102144.00;;;11.70
9985;BMP180;16737;50.932;6.780;2023-02-11T12:44:40;102128.00;;;11.70
9985;BMP180;16737;50.932;6.780;2023-02-11T12:47:20;102106.00;;;11.80
9985;BMP180;16737;50.932;6.780;2023-02-11T12:50:08;102113.00;;;11.70
9985;BMP180;16737;50.932;6.780;2023-02-11T12:53:01;102125.00;;;11.70
9985;BMP180;16737;50.932;6.780;2023-02-11T12:55:35;102115.00;;;11.70
9985;BMP180;16737;50.932;6.780;2023-02-11T12:58:10;102132.00;;;11.70
9985;BMP180;16737;50.932;6.780;2023-02-11T13:00:46;102130.00;;;11.80
9985;BMP180;16737;50.932;6.780;2023-02-11T13:03:21;102128.00;;;11.80
9985;BMP180;16737;50.932;6.780;2023-02-11T13:05:54;102122.00;;;11.80
9985;BMP180;16737;50.932;6.780;2023-02-11T13:08:29;102109.00;;;11.80
9985;BMP180;16737;50.932;6.780;2023-02-11T13:11:01;102106.00;;;11.80
9985;BMP180;16737;50.932;6.780;2023-02-11T13:13:34;102112.00;;;11.80
9985;BMP180;16737;50.932;6.780;2023-02-11T13:16:26;102108.00;;;11.80
9985;BMP180;16737;50.932;6.780;2023-02-11T13:19:07;102109.00;;;11.90
9985;BMP180;16737;50.932;6.780;2023-02-11T13:22:05;102114.00;;;11.90
9985;BMP180;16737;50.932;6.780;2023-02-11T13:24:43;102125.00;;;11.90
9985;BMP180;16737;50.932;6.780;2023-02-11T13:27:25;102120.00;;;11.90
9985;BMP180;16737;50.932;6.780;2023-02-11T13:30:25;102116.00;;;11.90
9985;BMP180;16737;50.932;6.780;2023-02-11T13:33:29;102109.00;;;11.90
9985;BMP180;16737;50.932;6.780;2023-02-11T13:36:14;102109.00;;;11.90
9985;BMP180;16737;50.932;6.780;2023-02-11T13:39:02;102099.00;;;11.90
9985;BMP180;16737;50.932;6.780;2023-02-11T13:41:36;102102.00;;;12.00
9985;BMP180;16737;50.932;6.780;2023-02-11T13:44:22;102110.00;;;11.90
9985;BMP180;16737;50.932;6.780;2023-02-11T13:46:56;102103.00;;;12.00
9985;BMP180;16737;50.932;6.780;2023-02-11T13:49:31;102104.00;;;11.90
9985;BMP180;16737;50.932;6.780;2023-02-11T13:52:02;102088.00;;;11.90
9985;BMP180;16737;50.932;6.780;2023-02-11T13:54:35;102099.00;;;12.00
9985;BMP180;16737;50.932;6.780;2023-02-11T13:57:26;102115.00;;;11.90
9985;BMP180;16737;50.932;6.780;2023-02-11T13:59:55;102106.00;;;12.00
9985;BMP180;16737;50.932;6.780;2023-02-11T14:02:31;102099.00;;;12.00
9985;BMP180;16737;50.932;6.780;2023-02-11T14:05:24;102115.00;;;12.00
9985;BMP180;16737;50.932;6.780;2023-02-11T14:08:23;102110.00;;;12.00
9985;BMP180;16737;50.932;6.780;2023-02-11T14:14:20;102108.00;;;12.00
9985;BMP180;16737;50.932;6.780;2023-02-11T14:17:16;102107.00;;;12.00
9985;BMP180;16737;50.932;6.780;2023-02-11T14:19:47;102108.00;;;12.10
9985;BMP180;16737;50.932;6.780;2023-02-11T14:22:22;102108.00;;;12.00
9985;BMP180;16737;50.932;6.780;2023-02-11T14:24:56;102103.00;;;12.10
9985;BMP180;16737;50.932;6.780;2023-02-11T14:27:33;102094.00;;;12.10
9985;BMP180;16737;50.932;6.780;2023-02-11T14:30:17;102106.00;;;12.10
9985;BMP180;16737;50.932;6.780;2023-02-11T14:36:04;102111.00;;;12.10
9985;BMP180;16737;50.932;6.780;2023-02-11T14:38:51;102109.00;;;12.10
9985;BMP180;16737;50.932;6.780;2023-02-11T14:41:23;102109.00;;;12.10
9985;BMP180;16737;50.932;6.780;2023-02-11T14:43:54;102110.00;;;12.10
9985;BMP180;16737;50.932;6.780;2023-02-11T14:46:24;102114.00;;;12.20
9985;BMP180;16737;50.932;6.780;2023-02-11T14:48:58;102122.00;;;12.20
9985;BMP180;16737;50.932;6.780;2023-02-11T14:51:29;102103.00;;;12.20
9985;BMP180;16737;50.932;6.780;2023-02-11T14:54:06;102111.00;;;12.10
9985;BMP180;16737;50.932;6.780;2023-02-11T14:56:38;102117.00;;;12.20